sensor_id;sensor_type;location;lat;lon;timestamp;temperature;humidity
33865;DHT22;20159;51.072;13.526;2022-10-16T00:00:36;17.40;90.20
33865;DHT22;20159;51.072;13.526;2022-10-16T00:03:02;17.40;90.30
33865;DHT22;20159;51.072;13.526;2022-10-16T00:05:28;17.40;90.30
33865;DHT22;20159;51.072;13.526;2022-10-16T00:07:54;17.40;90.40
33865;DHT22;20159;51.072;13.526;2022-10-16T00:10:19;17.30;90.40
33865;DHT22;20159;51.072;13.526;2022-10-16T00:12:45;17.30;90.50
33865;DHT22;20159;51.072;13.526;2022-10-16T00:15:11;17.30;90.50
33865;DHT22;20159;51.072;13.526;2022-10-16T00:17:36;17.20;90.60
33865;DHT22;20159;51.072;13.526;2022-10-16T00:20:02;17.20;90.70
33865;DHT22;20159;51.072;13.526;2022-10-16T00:22:28;17.20;90.80
33865;DHT22;20159;51.072;13.526;2022-10-16T00:24:53;17.20;90.90
33865;DHT22;20159;51.072;13.526;2022-10-16T00:27:19;17.20;90.90
33865;DHT22;20159;51.072;13.526;2022-10-16T00:29:45;17.20;90.90
33865;DHT22;20159;51.072;13.526;2022-10-16T00:32:10;17.20;90.70
33865;DHT22;20159;51.072;13.526;2022-10-16T00:34:36;17.20;90.60
33865;DHT22;20159;51.072;13.526;2022-10-16T00:37:02;17.20;90.60
33865;DHT22;20159;51.072;13.526;2022-10-16T00:39:28;17.10;90.60
33865;DHT22;20159;51.072;13.526;2022-10-16T00:41:53;17.20;90.50
33865;DHT22;20159;51.072;13.526;2022-10-16T00:44:46;17.10;90.60
33865;DHT22;20159;51.072;13.526;2022-10-16T00:47:17;17.10;90.60
33865;DHT22;20159;51.072;13.526;2022-10-16T00:49:44;17.10;90.50
33865;DHT22;20159;51.072;13.526;2022-10-16T00:52:11;17.00;90.60
33865;DHT22;20159;51.072;13.526;2022-10-16T00:54:37;17.00;90.40
33865;DHT22;20159;51.072;13.526;2022-10-16T00:57:05;16.90;90.30
33865;DHT22;20159;51.072;13.526;2022-10-16T00:59:33;16.90;90.70
33865;DHT22;20159;51.072;13.526;2022-10-16T01:02:00;16.80;90.40
33865;DHT22;20159;51.072;13.526;2022-10-16T01:04:26;16.70;90.30
33865;DHT22;20159;51.072;13.526;2022-10-16T01:12:41;16.60;90.40
33865;DHT22;20159;51.072;13.526;2022-10-16T01:15:10;16.60;90.50
33865;DHT22;20159;51.072;13.526;2022-10-16T01:17:43;16.50;90.30
33865;DHT22;20159;51.072;13.526;2022-10-16T01:20:16;16.50;90.60
33865;DHT22;20159;51.072;13.526;2022-10-16T01:22:59;16.40;90.70
33865;DHT22;20159;51.072;13.526;2022-10-16T01:28:13;16.30;91.50
33865;DHT22;20159;51.072;13.526;2022-10-16T01:30:40;16.30;91.40
33865;DHT22;20159;51.072;13.526;2022-10-16T01:33:17;16.30;91.70
33865;DHT22;20159;51.072;13.526;2022-10-16T01:36:11;16.30;92.50
33865;DHT22;20159;51.072;13.526;2022-10-16T01:38:39;16.40;92.90
33865;DHT22;20159;51.072;13.526;2022-10-16T01:41:14;16.50;92.70
33865;DHT22;20159;51.072;13.526;2022-10-16T01:43:45;16.50;93.00
33865;DHT22;20159;51.072;13.526;2022-10-16T01:46:13;16.60;92.90
33865;DHT22;20159;51.072;13.526;2022-10-16T01:48:42;16.80;92.80
33865;DHT22;20159;51.072;13.526;2022-10-16T01:51:11;16.90;92.60
33865;DHT22;20159;51.072;13.526;2022-10-16T01:53:38;17.00;92.60
33865;DHT22;20159;51.072;13.526;2022-10-16T01:56:08;17.00;92.40
33865;DHT22;20159;51.072;13.526;2022-10-16T01:58:39;17.10;92.30
33865;DHT22;20159;51.072;13.526;2022-10-16T02:01:08;17.20;92.30
33865;DHT22;20159;51.072;13.526;2022-10-16T02:03:37;17.30;92.20
33865;DHT22;20159;51.072;13.526;2022-10-16T02:06:04;17.40;92.10
33865;DHT22;20159;51.072;13.526;2022-10-16T02:08:30;17.50;92.00
33865;DHT22;20159;51.072;13.526;2022-10-16T02:10:57;17.60;92.00
33865;DHT22;20159;51.072;13.526;2022-10-16T02:16:06;17.70;91.70
33865;DHT22;20159;51.072;13.526;2022-10-16T02:18:32;17.80;91.60
33865;DHT22;20159;51.072;13.526;2022-10-16T02:21:06;17.90;91.50
33865;DHT22;20159;51.072;13.526;2022-10-16T02:23:45;18.00;91.40
33865;DHT22;20159;51.072;13.526;2022-10-16T02:26:19;18.10;91.30
33865;DHT22;20159;51.072;13.526;2022-10-16T02:28:54;18.10;91.20
33865;DHT22;20159;51.072;13.526;2022-10-16T02:31:27;18.20;91.00
33865;DHT22;20159;51.072;13.526;2022-10-16T02:33:55;18.30;90.80
33865;DHT22;20159;51.072;13.526;2022-10-16T02:36:23;18.40;90.80
33865;DHT22;20159;51.072;13.526;2022-10-16T02:38:51;18.40;90.70
33865;DHT22;20159;51.072;13.526;2022-10-16T02:41:17;18.40;90.60
33865;DHT22;20159;51.072;13.526;2022-10-16T02:43:43;18.50;90.50
33865;DHT22;20159;51.072;13.526;2022-10-16T02:46:09;18.50;90.40
33865;DHT22;20159;51.072;13.526;2022-10-16T02:48:34;18.50;90.40
33865;DHT22;20159;51.072;13.526;2022-10-16T02:51:01;18.50;90.30
33865;DHT22;20159;51.072;13.526;2022-10-16T02:53:26;18.60;90.30
33865;DHT22;20159;51.072;13.526;2022-10-16T02:55:52;18.60;90.10
33865;DHT22;20159;51.072;13.526;2022-10-16T02:58:17;18.60;89.90
33865;DHT22;20159;51.072;13.526;2022-10-16T03:00:43;18.60;89.70
33865;DHT22;20159;51.072;13.526;2022-10-16T03:03:08;18.50;89.20
33865;DHT22;20159;51.072;13.526;2022-10-16T03:05:34;18.50;89.00
33865;DHT22;20159;51.072;13.526;2022-10-16T03:08:00;18.50;88.80
33865;DHT22;20159;51.072;13.526;2022-10-16T03:10:26;18.40;88.90
33865;DHT22;20159;51.072;13.526;2022-10-16T03:12:52;18.30;88.70
33865;DHT22;20159;51.072;13.526;2022-10-16T03:15:18;18.30;88.80
33865;DHT22;20159;51.072;13.526;2022-10-16T03:17:43;18.20;88.90
33865;DHT22;20159;51.072;13.526;2022-10-16T03:20:09;18.10;89.00
33865;DHT22;20159;51.072;13.526;2022-10-16T03:22:34;18.10;89.30
33865;DHT22;20159;51.072;13.526;2022-10-16T03:25:00;18.00;89.10
33865;DHT22;20159;51.072;13.526;2022-10-16T03:27:26;18.00;89.40
33865;DHT22;20159;51.072;13.526;2022-10-16T03:29:51;17.90;89.30
33865;DHT22;20159;51.072;13.526;2022-10-16T03:32:17;17.80;89.30
33865;DHT22;20159;51.072;13.526;2022-10-16T03:34:43;17.70;89.50
33865;DHT22;20159;51.072;13.526;2022-10-16T03:37:09;17.70;89.80
33865;DHT22;20159;51.072;13.526;2022-10-16T03:39:35;17.60;89.80
33865;DHT22;20159;51.072;13.526;2022-10-16T03:42:00;17.50;90.00
33865;DHT22;20159;51.072;13.526;2022-10-16T03:44:26;17.60;90.10
33865;DHT22;20159;51.072;13.526;2022-10-16T03:46:51;17.50;90.10
33865;DHT22;20159;51.072;13.526;2022-10-16T03:49:17;17.40;90.20
33865;DHT22;20159;51.072;13.526;2022-10-16T03:51:42;17.40;90.30
33865;DHT22;20159;51.072;13.526;2022-10-16T03:54:09;17.30;90.30
33865;DHT22;20159;51.072;13.526;2022-10-16T03:56:35;17.30;90.40
33865;DHT22;20159;51.072;13.526;2022-10-16T03:59:00;17.20;90.50
33865;DHT22;20159;51.072;13.526;2022-10-16T04:01:26;17.20;90.50
33865;DHT22;20159;51.072;13.526;2022-10-16T04:03:52;17.30;90.60
33865;DHT22;20159;51.072;13.526;2022-10-16T04:06:17;17.20;90.60
33865;DHT22;20159;51.072;13.526;2022-10-16T04:08:43;17.20;90.70
33865;DHT22;20159;51.072;13.526;2022-10-16T04:11:09;17.20;90.80
33865;DHT22;20159;51.072;13.526;2022-10-16T04:13:34;17.10;90.90
33865;DHT22;20159;51.072;13.526;2022-10-16T04:16:00;17.10;91.00
33865;DHT22;20159;51.072;13.526;2022-10-16T04:18:26;17.10;91.00
33865;DHT22;20159;51.072;13.526;2022-10-16T04:20:53;17.10;91.10
33865;DHT22;20159;51.072;13.526;2022-10-16T04:23:18;17.10;91.20
33865;DHT22;20159;51.072;13.526;2022-10-16T04:25:44;17.10;91.20
33865;DHT22;20159;51.072;13.526;2022-10-16T04:28:09;17.10;91.20
33865;DHT22;20159;51.072;13.526;2022-10-16T04:30:38;17.10;91.30
33865;DHT22;20159;51.072;13.526;2022-10-16T04:33:03;17.10;91.40
33865;DHT22;20159;51.072;13.526;2022-10-16T04:35:29;17.00;91.40
33865;DHT22;20159;51.072;13.526;2022-10-16T04:37:57;17.10;91.40
33865;DHT22;20159;51.072;13.526;2022-10-16T04:40:23;17.10;91.50
33865;DHT22;20159;51.072;13.526;2022-10-16T04:42:48;17.10;91.40
33865;DHT22;20159;51.072;13.526;2022-10-16T04:45:14;17.10;91.50
33865;DHT22;20159;51.072;13.526;2022-10-16T04:47:39;17.10;91.50
33865;DHT22;20159;51.072;13.526;2022-10-16T04:50:05;17.90;91.80
33865;DHT22;20159;51.072;13.526;2022-10-16T04:52:31;17.10;91.60
33865;DHT22;20159;51.072;13.526;2022-10-16T04:54:57;17.10;91.50
33865;DHT22;20159;51.072;13.526;2022-10-16T04:57:26;17.10;91.60
33865;DHT22;20159;51.072;13.526;2022-10-16T04:59:52;17.10;91.50
33865;DHT22;20159;51.072;13.526;2022-10-16T05:02:18;17.20;91.50
33865;DHT22;20159;51.072;13.526;2022-10-16T05:04:43;17.20;91.40
33865;DHT22;20159;51.072;13.526;2022-10-16T05:07:09;17.20;91.40
33865;DHT22;20159;51.072;13.526;2022-10-16T05:09:34;17.20;91.30
33865;DHT22;20159;51.072;13.526;2022-10-16T05:12:00;17.20;91.20
33865;DHT22;20159;51.072;13.526;2022-10-16T05:14:25;17.10;91.20
33865;DHT22;20159;51.072;13.526;2022-10-16T05:16:51;17.10;91.20
33865;DHT22;20159;51.072;13.526;2022-10-16T05:19:17;17.10;91.10
33865;DHT22;20159;51.072;13.526;2022-10-16T05:21:42;17.10;91.20
33865;DHT22;20159;51.072;13.526;2022-10-16T05:24:08;17.10;91.10
33865;DHT22;20159;51.072;13.526;2022-10-16T05:26:34;17.10;91.10
33865;DHT22;20159;51.072;13.526;2022-10-16T05:29:00;17.00;91.10
33865;DHT22;20159;51.072;13.526;2022-10-16T05:31:26;17.00;91.10
33865;DHT22;20159;51.072;13.526;2022-10-16T05:33:51;16.90;91.00
33865;DHT22;20159;51.072;13.526;2022-10-16T05:36:17;16.90;91.10
33865;DHT22;20159;51.072;13.526;2022-10-16T05:38:43;16.80;91.20
33865;DHT22;20159;51.072;13.526;2022-10-16T05:41:09;16.80;91.20
33865;DHT22;20159;51.072;13.526;2022-10-16T05:43:35;16.80;91.30
33865;DHT22;20159;51.072;13.526;2022-10-16T05:46:05;16.80;91.30
33865;DHT22;20159;51.072;13.526;2022-10-16T05:48:31;15.00;90.90
33865;DHT22;20159;51.072;13.526;2022-10-16T05:51:02;16.80;91.40
33865;DHT22;20159;51.072;13.526;2022-10-16T05:53:29;16.70;91.60
33865;DHT22;20159;51.072;13.526;2022-10-16T05:55:55;16.70;91.60
33865;DHT22;20159;51.072;13.526;2022-10-16T05:58:21;16.70;91.60
33865;DHT22;20159;51.072;13.526;2022-10-16T06:00:58;16.70;91.70
33865;DHT22;20159;51.072;13.526;2022-10-16T06:03:24;16.70;91.80
33865;DHT22;20159;51.072;13.526;2022-10-16T06:05:50;16.70;91.70
33865;DHT22;20159;51.072;13.526;2022-10-16T06:08:17;16.70;91.70
33865;DHT22;20159;51.072;13.526;2022-10-16T06:10:43;16.70;91.80
33865;DHT22;20159;51.072;13.526;2022-10-16T06:13:09;16.80;91.80
33865;DHT22;20159;51.072;13.526;2022-10-16T06:15:35;16.00;91.70
33865;DHT22;20159;51.072;13.526;2022-10-16T06:18:00;16.80;92.00
33865;DHT22;20159;51.072;13.526;2022-10-16T06:20:26;16.80;92.10
33865;DHT22;20159;51.072;13.526;2022-10-16T06:22:52;16.80;92.20
33865;DHT22;20159;51.072;13.526;2022-10-16T06:25:17;16.90;92.40
33865;DHT22;20159;51.072;13.526;2022-10-16T06:27:43;16.90;92.40
33865;DHT22;20159;51.072;13.526;2022-10-16T06:30:09;17.00;92.50
33865;DHT22;20159;51.072;13.526;2022-10-16T06:32:34;17.10;92.90
33865;DHT22;20159;51.072;13.526;2022-10-16T06:35:00;17.20;92.70
33865;DHT22;20159;51.072;13.526;2022-10-16T06:37:26;17.30;92.70
33865;DHT22;20159;51.072;13.526;2022-10-16T06:39:52;17.40;92.70
33865;DHT22;20159;51.072;13.526;2022-10-16T06:42:18;17.50;92.80
33865;DHT22;20159;51.072;13.526;2022-10-16T06:44:44;17.50;92.60
33865;DHT22;20159;51.072;13.526;2022-10-16T06:47:09;17.60;92.50
33865;DHT22;20159;51.072;13.526;2022-10-16T06:49:35;17.80;92.30
33865;DHT22;20159;51.072;13.526;2022-10-16T06:52:01;17.80;92.10
33865;DHT22;20159;51.072;13.526;2022-10-16T06:54:27;17.90;92.00
33865;DHT22;20159;51.072;13.526;2022-10-16T06:56:53;18.00;91.90
33865;DHT22;20159;51.072;13.526;2022-10-16T06:59:20;18.10;91.70
33865;DHT22;20159;51.072;13.526;2022-10-16T07:01:46;18.20;91.50
33865;DHT22;20159;51.072;13.526;2022-10-16T07:04:11;18.30;91.40
33865;DHT22;20159;51.072;13.526;2022-10-16T07:06:37;18.40;91.30
33865;DHT22;20159;51.072;13.526;2022-10-16T07:09:05;18.50;91.20
33865;DHT22;20159;51.072;13.526;2022-10-16T07:11:32;18.60;91.10
33865;DHT22;20159;51.072;13.526;2022-10-16T07:13:58;18.70;90.90
33865;DHT22;20159;51.072;13.526;2022-10-16T07:16:25;18.80;90.80
33865;DHT22;20159;51.072;13.526;2022-10-16T07:18:51;18.90;90.50
33865;DHT22;20159;51.072;13.526;2022-10-16T07:21:23;19.00;90.30
33865;DHT22;20159;51.072;13.526;2022-10-16T07:23:55;19.10;90.50
33865;DHT22;20159;51.072;13.526;2022-10-16T07:26:22;19.20;90.00
33865;DHT22;20159;51.072;13.526;2022-10-16T07:28:48;19.30;90.00
33865;DHT22;20159;51.072;13.526;2022-10-16T07:31:15;19.40;89.50
33865;DHT22;20159;51.072;13.526;2022-10-16T07:33:42;19.50;90.00
33865;DHT22;20159;51.072;13.526;2022-10-16T07:36:10;19.60;89.30
33865;DHT22;20159;51.072;13.526;2022-10-16T07:38:35;19.70;89.30
33865;DHT22;20159;51.072;13.526;2022-10-16T07:41:03;19.80;89.20
33865;DHT22;20159;51.072;13.526;2022-10-16T07:43:29;19.90;89.10
33865;DHT22;20159;51.072;13.526;2022-10-16T07:45:55;20.10;89.80
33865;DHT22;20159;51.072;13.526;2022-10-16T07:48:22;20.30;88.70
33865;DHT22;20159;51.072;13.526;2022-10-16T07:50:48;20.50;88.50
33865;DHT22;20159;51.072;13.526;2022-10-16T07:53:14;20.70;88.20
33865;DHT22;20159;51.072;13.526;2022-10-16T07:55:39;20.80;87.60
33865;DHT22;20159;51.072;13.526;2022-10-16T07:58:05;21.00;87.20
33865;DHT22;20159;51.072;13.526;2022-10-16T08:00:31;21.10;86.80
33865;DHT22;20159;51.072;13.526;2022-10-16T08:02:58;21.30;86.40
33865;DHT22;20159;51.072;13.526;2022-10-16T08:05:27;21.40;86.00
33865;DHT22;20159;51.072;13.526;2022-10-16T08:07:53;21.50;85.40
33865;DHT22;20159;51.072;13.526;2022-10-16T08:10:20;21.50;85.10
33865;DHT22;20159;51.072;13.526;2022-10-16T08:12:47;21.70;84.10
33865;DHT22;20159;51.072;13.526;2022-10-16T08:15:12;21.80;84.20
33865;DHT22;20159;51.072;13.526;2022-10-16T08:17:38;21.80;84.30
33865;DHT22;20159;51.072;13.526;2022-10-16T08:20:04;21.90;84.10
33865;DHT22;20159;51.072;13.526;2022-10-16T08:22:30;22.00;85.00
33865;DHT22;20159;51.072;13.526;2022-10-16T08:24:56;22.30;85.70
33865;DHT22;20159;51.072;13.526;2022-10-16T08:27:22;22.60;85.50
33865;DHT22;20159;51.072;13.526;2022-10-16T08:29:49;22.80;84.90
33865;DHT22;20159;51.072;13.526;2022-10-16T08:32:14;23.20;84.80
33865;DHT22;20159;51.072;13.526;2022-10-16T08:34:40;23.40;83.30
33865;DHT22;20159;51.072;13.526;2022-10-16T08:37:06;23.70;82.10
33865;DHT22;20159;51.072;13.526;2022-10-16T08:39:33;23.90;81.20
33865;DHT22;20159;51.072;13.526;2022-10-16T08:44:57;24.20;79.20
33865;DHT22;20159;51.072;13.526;2022-10-16T08:50:18;24.30;77.00
33865;DHT22;20159;51.072;13.526;2022-10-16T08:52:46;24.40;77.90
33865;DHT22;20159;51.072;13.526;2022-10-16T08:55:30;24.70;79.10
33865;DHT22;20159;51.072;13.526;2022-10-16T08:57:58;24.90;78.90
33865;DHT22;20159;51.072;13.526;2022-10-16T09:00:24;25.30;81.30
33865;DHT22;20159;51.072;13.526;2022-10-16T09:06:07;26.30;78.60
33865;DHT22;20159;51.072;13.526;2022-10-16T09:12:03;27.10;74.00
33865;DHT22;20159;51.072;13.526;2022-10-16T09:22:47;27.20;68.90
33865;DHT22;20159;51.072;13.526;2022-10-16T09:25:16;27.20;69.10
33865;DHT22;20159;51.072;13.526;2022-10-16T09:27:45;27.10;67.90
33865;DHT22;20159;51.072;13.526;2022-10-16T09:30:13;27.00;67.60
33865;DHT22;20159;51.072;13.526;2022-10-16T09:32:40;26.90;67.50
33865;DHT22;20159;51.072;13.526;2022-10-16T09:35:13;26.70;67.20
33865;DHT22;20159;51.072;13.526;2022-10-16T09:37:40;26.60;66.20
33865;DHT22;20159;51.072;13.526;2022-10-16T09:40:06;26.40;67.00
33865;DHT22;20159;51.072;13.526;2022-10-16T09:42:35;26.30;67.30
33865;DHT22;20159;51.072;13.526;2022-10-16T09:45:02;26.20;67.10
33865;DHT22;20159;51.072;13.526;2022-10-16T09:47:29;26.10;66.80
33865;DHT22;20159;51.072;13.526;2022-10-16T09:49:56;26.00;67.00
33865;DHT22;20159;51.072;13.526;2022-10-16T09:52:24;25.90;67.70
33865;DHT22;20159;51.072;13.526;2022-10-16T09:55:13;25.80;67.80
33865;DHT22;20159;51.072;13.526;2022-10-16T09:57:58;25.80;67.50
33865;DHT22;20159;51.072;13.526;2022-10-16T10:00:24;25.80;67.70
33865;DHT22;20159;51.072;13.526;2022-10-16T10:02:50;25.80;68.20
33865;DHT22;20159;51.072;13.526;2022-10-16T10:05:27;25.80;68.50
33865;DHT22;20159;51.072;13.526;2022-10-16T10:08:01;25.90;68.50
33865;DHT22;20159;51.072;13.526;2022-10-16T10:10:33;26.00;67.80
33865;DHT22;20159;51.072;13.526;2022-10-16T10:13:01;26.10;68.60
33865;DHT22;20159;51.072;13.526;2022-10-16T10:15:33;26.20;68.60
33865;DHT22;20159;51.072;13.526;2022-10-16T10:18:00;26.40;67.80
33865;DHT22;20159;51.072;13.526;2022-10-16T10:20:32;26.50;67.80
33865;DHT22;20159;51.072;13.526;2022-10-16T10:23:00;26.50;67.10
33865;DHT22;20159;51.072;13.526;2022-10-16T10:26:03;26.60;67.10
33865;DHT22;20159;51.072;13.526;2022-10-16T10:28:52;26.60;65.50
33865;DHT22;20159;51.072;13.526;2022-10-16T10:31:39;26.60;66.20
33865;DHT22;20159;51.072;13.526;2022-10-16T10:34:50;26.60;65.60
33865;DHT22;20159;51.072;13.526;2022-10-16T10:43:17;26.50;65.90
33865;DHT22;20159;51.072;13.526;2022-10-16T10:45:48;26.40;65.30
33865;DHT22;20159;51.072;13.526;2022-10-16T10:48:27;26.40;65.00
33865;DHT22;20159;51.072;13.526;2022-10-16T10:51:03;26.40;65.50
33865;DHT22;20159;51.072;13.526;2022-10-16T11:01:35;26.80;65.80
33865;DHT22;20159;51.072;13.526;2022-10-16T11:06:57;27.00;63.50
33865;DHT22;20159;51.072;13.526;2022-10-16T11:09:32;26.90;63.30
33865;DHT22;20159;51.072;13.526;2022-10-16T11:12:21;26.90;62.70
33865;DHT22;20159;51.072;13.526;2022-10-16T11:15:02;26.80;63.10
33865;DHT22;20159;51.072;13.526;2022-10-16T11:17:33;26.70;61.80
33865;DHT22;20159;51.072;13.526;2022-10-16T11:22:43;26.50;63.30
33865;DHT22;20159;51.072;13.526;2022-10-16T11:28:01;26.40;62.90
33865;DHT22;20159;51.072;13.526;2022-10-16T11:30:29;26.40;63.20
33865;DHT22;20159;51.072;13.526;2022-10-16T11:38:15;26.20;63.10
33865;DHT22;20159;51.072;13.526;2022-10-16T11:40:47;26.20;62.80
33865;DHT22;20159;51.072;13.526;2022-10-16T11:43:48;26.20;63.40
33865;DHT22;20159;51.072;13.526;2022-10-16T11:46:19;26.10;63.20
33865;DHT22;20159;51.072;13.526;2022-10-16T11:48:50;26.10;64.00
33865;DHT22;20159;51.072;13.526;2022-10-16T11:51:29;26.10;64.40
33865;DHT22;20159;51.072;13.526;2022-10-16T11:54:24;26.10;63.70
33865;DHT22;20159;51.072;13.526;2022-10-16T11:56:57;26.20;63.70
33865;DHT22;20159;51.072;13.526;2022-10-16T11:59:32;26.30;64.10
33865;DHT22;20159;51.072;13.526;2022-10-16T12:04:45;26.50;64.10
33865;DHT22;20159;51.072;13.526;2022-10-16T12:07:16;26.60;64.40
33865;DHT22;20159;51.072;13.526;2022-10-16T12:09:44;26.70;63.80
33865;DHT22;20159;51.072;13.526;2022-10-16T12:12:28;26.80;64.40
33865;DHT22;20159;51.072;13.526;2022-10-16T12:17:47;26.90;63.00
33865;DHT22;20159;51.072;13.526;2022-10-16T12:22:50;27.10;62.80
33865;DHT22;20159;51.072;13.526;2022-10-16T12:25:29;27.10;62.50
33865;DHT22;20159;51.072;13.526;2022-10-16T12:28:00;27.10;62.00
33865;DHT22;20159;51.072;13.526;2022-10-16T12:30:29;27.00;61.90
33865;DHT22;20159;51.072;13.526;2022-10-16T12:33:00;27.00;62.10
33865;DHT22;20159;51.072;13.526;2022-10-16T12:35:29;27.10;62.10
33865;DHT22;20159;51.072;13.526;2022-10-16T12:38:12;27.10;62.70
33865;DHT22;20159;51.072;13.526;2022-10-16T12:40:42;27.10;61.40
33865;DHT22;20159;51.072;13.526;2022-10-16T12:43:23;27.20;61.10
33865;DHT22;20159;51.072;13.526;2022-10-16T12:48:27;27.30;61.00
33865;DHT22;20159;51.072;13.526;2022-10-16T12:50:53;27.30;61.10
33865;DHT22;20159;51.072;13.526;2022-10-16T12:53:28;27.20;61.40
33865;DHT22;20159;51.072;13.526;2022-10-16T12:56:13;27.20;60.70
33865;DHT22;20159;51.072;13.526;2022-10-16T12:58:53;27.20;60.60
33865;DHT22;20159;51.072;13.526;2022-10-16T13:04:15;27.10;60.50
33865;DHT22;20159;51.072;13.526;2022-10-16T13:21:56;26.70;61.20
33865;DHT22;20159;51.072;13.526;2022-10-16T13:27:13;26.60;61.40
33865;DHT22;20159;51.072;13.526;2022-10-16T13:29:42;26.60;61.40
33865;DHT22;20159;51.072;13.526;2022-10-16T13:32:10;26.50;62.50
33865;DHT22;20159;51.072;13.526;2022-10-16T13:34:46;26.50;62.00
33865;DHT22;20159;51.072;13.526;2022-10-16T13:37:20;26.40;62.10
33865;DHT22;20159;51.072;13.526;2022-10-16T13:39:46;26.30;62.60
33865;DHT22;20159;51.072;13.526;2022-10-16T13:42:27;26.30;62.70
33865;DHT22;20159;51.072;13.526;2022-10-16T13:44:55;26.30;62.80
33865;DHT22;20159;51.072;13.526;2022-10-16T13:47:26;26.30;63.00
33865;DHT22;20159;51.072;13.526;2022-10-16T13:50:09;26.30;63.40
33865;DHT22;20159;51.072;13.526;2022-10-16T13:52:36;26.30;63.00
33865;DHT22;20159;51.072;13.526;2022-10-16T13:55:04;26.30;63.40
33865;DHT22;20159;51.072;13.526;2022-10-16T13:57:29;26.30;63.00
33865;DHT22;20159;51.072;13.526;2022-10-16T13:59:55;26.40;63.50
33865;DHT22;20159;51.072;13.526;2022-10-16T14:02:31;26.30;63.70
33865;DHT22;20159;51.072;13.526;2022-10-16T14:05:01;26.40;64.00
33865;DHT22;20159;51.072;13.526;2022-10-16T14:07:31;26.30;63.40
33865;DHT22;20159;51.072;13.526;2022-10-16T14:10:03;26.30;63.40
33865;DHT22;20159;51.072;13.526;2022-10-16T14:12:29;26.30;63.70
33865;DHT22;20159;51.072;13.526;2022-10-16T14:14:55;26.30;63.40
33865;DHT22;20159;51.072;13.526;2022-10-16T14:17:27;26.30;63.20
33865;DHT22;20159;51.072;13.526;2022-10-16T14:19:56;26.20;62.80
33865;DHT22;20159;51.072;13.526;2022-10-16T14:22:30;26.20;62.70
33865;DHT22;20159;51.072;13.526;2022-10-16T14:24:57;26.10;62.80
33865;DHT22;20159;51.072;13.526;2022-10-16T14:27:35;26.10;62.80
33865;DHT22;20159;51.072;13.526;2022-10-16T14:30:18;26.00;62.70
33865;DHT22;20159;51.072;13.526;2022-10-16T14:32:59;25.90;63.00
33865;DHT22;20159;51.072;13.526;2022-10-16T14:35:27;25.70;63.20
33865;DHT22;20159;51.072;13.526;2022-10-16T14:37:54;25.70;63.00
33865;DHT22;20159;51.072;13.526;2022-10-16T14:40:24;25.60;63.20
33865;DHT22;20159;51.072;13.526;2022-10-16T14:42:50;25.60;63.30
33865;DHT22;20159;51.072;13.526;2022-10-16T14:45:20;25.50;63.90
33865;DHT22;20159;51.072;13.526;2022-10-16T14:47:53;25.40;64.00
33865;DHT22;20159;51.072;13.526;2022-10-16T14:50:19;25.40;64.40
33865;DHT22;20159;51.072;13.526;2022-10-16T14:52:45;25.30;64.40
33865;DHT22;20159;51.072;13.526;2022-10-16T14:55:11;25.20;64.50
33865;DHT22;20159;51.072;13.526;2022-10-16T14:57:37;25.30;64.90
33865;DHT22;20159;51.072;13.526;2022-10-16T15:00:19;25.20;64.90
33865;DHT22;20159;51.072;13.526;2022-10-16T15:02:46;25.20;65.00
33865;DHT22;20159;51.072;13.526;2022-10-16T15:05:24;25.20;64.80
33865;DHT22;20159;51.072;13.526;2022-10-16T15:07:51;25.20;64.80
33865;DHT22;20159;51.072;13.526;2022-10-16T15:10:17;25.10;65.10
33865;DHT22;20159;51.072;13.526;2022-10-16T15:12:43;25.10;65.10
33865;DHT22;20159;51.072;13.526;2022-10-16T15:15:23;25.10;65.20
33865;DHT22;20159;51.072;13.526;2022-10-16T15:17:50;25.00;65.20
33865;DHT22;20159;51.072;13.526;2022-10-16T15:20:22;25.00;65.40
33865;DHT22;20159;51.072;13.526;2022-10-16T15:22:48;24.90;65.00
33865;DHT22;20159;51.072;13.526;2022-10-16T15:25:27;24.80;64.90
33865;DHT22;20159;51.072;13.526;2022-10-16T15:27:54;24.70;64.50
33865;DHT22;20159;51.072;13.526;2022-10-16T15:30:19;24.60;64.70
33865;DHT22;20159;51.072;13.526;2022-10-16T15:32:45;24.50;64.60
33865;DHT22;20159;51.072;13.526;2022-10-16T15:35:10;24.40;64.70
33865;DHT22;20159;51.072;13.526;2022-10-16T15:37:36;24.30;64.70
33865;DHT22;20159;51.072;13.526;2022-10-16T15:40:02;24.20;64.80
33865;DHT22;20159;51.072;13.526;2022-10-16T15:42:28;24.00;64.90
33865;DHT22;20159;51.072;13.526;2022-10-16T15:44:53;23.90;65.40
33865;DHT22;20159;51.072;13.526;2022-10-16T15:47:19;23.80;65.50
33865;DHT22;20159;51.072;13.526;2022-10-16T15:49:44;23.70;65.70
33865;DHT22;20159;51.072;13.526;2022-10-16T15:52:11;23.60;65.90
33865;DHT22;20159;51.072;13.526;2022-10-16T15:54:37;23.50;66.00
33865;DHT22;20159;51.072;13.526;2022-10-16T15:57:02;23.40;66.20
33865;DHT22;20159;51.072;13.526;2022-10-16T15:59:28;23.30;66.50
33865;DHT22;20159;51.072;13.526;2022-10-16T16:01:53;23.20;66.70
33865;DHT22;20159;51.072;13.526;2022-10-16T16:04:19;23.10;67.00
33865;DHT22;20159;51.072;13.526;2022-10-16T16:06:44;23.00;67.20
33865;DHT22;20159;51.072;13.526;2022-10-16T16:09:11;22.90;67.40
33865;DHT22;20159;51.072;13.526;2022-10-16T16:11:37;22.70;67.60
33865;DHT22;20159;51.072;13.526;2022-10-16T16:14:05;22.60;67.80
33865;DHT22;20159;51.072;13.526;2022-10-16T16:16:31;22.50;68.00
33865;DHT22;20159;51.072;13.526;2022-10-16T16:19:02;22.40;68.30
33865;DHT22;20159;51.072;13.526;2022-10-16T16:21:28;22.30;68.60
33865;DHT22;20159;51.072;13.526;2022-10-16T16:23:54;22.20;68.80
33865;DHT22;20159;51.072;13.526;2022-10-16T16:26:26;22.10;69.00
33865;DHT22;20159;51.072;13.526;2022-10-16T16:28:53;22.00;69.50
33865;DHT22;20159;51.072;13.526;2022-10-16T16:31:20;21.90;69.40
33865;DHT22;20159;51.072;13.526;2022-10-16T16:33:48;21.80;69.80
33865;DHT22;20159;51.072;13.526;2022-10-16T16:36:14;21.70;70.10
33865;DHT22;20159;51.072;13.526;2022-10-16T16:38:39;21.60;70.20
33865;DHT22;20159;51.072;13.526;2022-10-16T16:41:16;21.50;70.40
33865;DHT22;20159;51.072;13.526;2022-10-16T16:43:42;21.40;71.00
33865;DHT22;20159;51.072;13.526;2022-10-16T16:46:08;21.30;70.80
33865;DHT22;20159;51.072;13.526;2022-10-16T16:48:34;21.20;71.20
33865;DHT22;20159;51.072;13.526;2022-10-16T16:51:04;21.10;71.50
33865;DHT22;20159;51.072;13.526;2022-10-16T16:53:30;21.00;72.00
33865;DHT22;20159;51.072;13.526;2022-10-16T16:56:00;20.90;71.80